createdAt,value
2023-02-14T00:01:39.795Z,7.77
2023-02-14T00:04:07.791Z,6.60
2023-02-14T00:06:38.885Z,6.70
2023-02-14T00:09:07.827Z,5.93
2023-02-14T00:11:35.784Z,6.07
2023-02-14T00:14:21.360Z,5.90
2023-02-14T00:16:49.449Z,6.70
2023-02-14T00:19:19.982Z,6.17
2023-02-14T00:21:50.147Z,6.47
2023-02-14T00:24:21.092Z,5.80
2023-02-14T00:26:50.907Z,6.93
2023-02-14T00:29:21.455Z,6.50
2023-02-14T00:31:49.782Z,7.03
2023-02-14T00:34:19.868Z,7.10
2023-02-14T00:36:49.863Z,7.33
2023-02-14T00:39:21.493Z,8.33
2023-02-14T00:41:49.503Z,7.00
2023-02-14T00:44:17.526Z,8.10
2023-02-14T00:46:45.558Z,7.20
2023-02-14T00:49:13.500Z,6.80
2023-02-14T00:51:41.506Z,7.80
2023-02-14T00:54:10.796Z,6.10
2023-02-14T00:56:38.820Z,8.10
2023-02-14T00:59:06.794Z,6.90
2023-02-14T01:01:35.002Z,7.70
2023-02-14T01:04:03.011Z,7.93
2023-02-14T01:06:31.141Z,7.83
2023-02-14T01:08:59.116Z,8.97
2023-02-14T01:11:30.226Z,7.83
2023-02-14T01:13:59.820Z,7.80
2023-02-14T01:16:29.719Z,6.90
2023-02-14T01:19:00.257Z,6.57
2023-02-14T01:21:31.091Z,8.70
2023-02-14T01:24:01.841Z,8.50
2023-02-14T01:26:31.792Z,7.20
2023-02-14T01:28:59.745Z,8.23
2023-02-14T01:31:31.156Z,7.30
2023-02-14T01:34:00.382Z,7.80
2023-02-14T01:36:31.146Z,8.50
2023-02-14T01:39:02.473Z,8.40
2023-02-14T01:41:35.098Z,6.97
2023-02-14T01:44:05.898Z,7.73
2023-02-14T01:46:36.610Z,7.90
2023-02-14T01:49:10.551Z,8.23
2023-02-14T01:51:44.154Z,9.43
2023-02-14T01:54:13.203Z,7.67
2023-02-14T01:56:48.012Z,7.90
2023-02-14T01:59:22.917Z,7.80
2023-02-14T02:01:53.305Z,8.27
2023-02-14T02:04:27.559Z,8.30
2023-02-14T02:06:59.243Z,9.13
2023-02-14T02:09:35.199Z,9.33
2023-02-14T02:12:05.331Z,9.30
2023-02-14T02:14:34.201Z,8.47
2023-02-14T02:17:27.465Z,8.37
2023-02-14T02:20:46.220Z,9.23
2023-02-14T02:23:59.044Z,8.83
2023-02-14T02:27:11.253Z,9.40
2023-02-14T02:30:30.103Z,9.60
2023-02-14T02:33:26.496Z,7.90
2023-02-14T02:36:27.266Z,9.60
2023-02-14T02:39:12.935Z,8.83
2023-02-14T02:42:04.987Z,8.60
2023-02-14T02:44:46.578Z,8.20
2023-02-14T02:47:24.406Z,8.50
2023-02-14T02:50:19.263Z,9.03
2023-02-14T02:53:07.044Z,8.27
2023-02-14T02:56:03.623Z,10.50
2023-02-14T02:58:36.599Z,9.20
2023-02-14T03:01:10.990Z,8.73
2023-02-14T03:03:58.371Z,8.70
2023-02-14T03:06:26.450Z,9.30
2023-02-14T03:08:55.789Z,9.67
2023-02-14T03:11:26.124Z,9.27
2023-02-14T03:14:10.734Z,9.93
2023-02-14T03:16:51.583Z,9.10
2023-02-14T03:20:01.019Z,9.03
2023-02-14T03:22:44.445Z,7.43
2023-02-14T03:25:31.891Z,9.80
2023-02-14T03:28:12.156Z,8.90
2023-02-14T03:30:50.205Z,9.87
2023-02-14T03:33:24.126Z,10.57
2023-02-14T03:36:01.936Z,9.27
2023-02-14T03:38:35.861Z,9.93
2023-02-14T03:41:11.479Z,9.90
2023-02-14T03:43:46.222Z,11.43
2023-02-14T03:46:20.843Z,8.70
2023-02-14T03:48:51.531Z,8.77
2023-02-14T03:51:24.668Z,9.27
2023-02-14T03:53:56.454Z,7.90
2023-02-14T03:56:34.074Z,8.50
2023-02-14T03:59:13.839Z,8.50
2023-02-14T04:01:48.194Z,9.40
2023-02-14T04:04:20.474Z,7.93
2023-02-14T04:06:48.927Z,9.10
2023-02-14T04:09:18.964Z,9.30
2023-02-14T04:11:50.316Z,9.00
2023-02-14T04:14:18.939Z,10.10
2023-02-14T04:17:04.304Z,8.07
2023-02-14T04:19:32.293Z,9.97
2023-02-14T04:22:03.246Z,8.03
2023-02-14T04:24:31.257Z,9.93
2023-02-14T04:27:11.079Z,10.03
2023-02-14T04:29:41.856Z,8.80
2023-02-14T04:32:13.814Z,9.40
2023-02-14T04:34:42.038Z,9.50
2023-02-14T04:37:10.298Z,9.30
2023-02-14T04:39:38.737Z,9.10
2023-02-14T04:42:09.037Z,8.77
2023-02-14T04:44:38.179Z,9.67
2023-02-14T04:47:06.996Z,10.93
2023-02-14T04:49:35.161Z,8.97
2023-02-14T04:52:03.663Z,9.87
2023-02-14T04:54:31.935Z,9.47
2023-02-14T04:57:00.108Z,10.30
2023-02-14T04:59:29.441Z,9.07
2023-02-14T05:01:57.717Z,9.80
2023-02-14T05:04:26.079Z,8.50
2023-02-14T05:06:54.077Z,9.57
2023-02-14T05:09:22.422Z,10.87
2023-02-14T05:11:50.389Z,9.97
2023-02-14T05:14:18.345Z,9.20
2023-02-14T05:16:47.767Z,8.90
2023-02-14T05:19:15.832Z,10.57
2023-02-14T05:21:43.757Z,8.03
2023-02-14T05:24:11.717Z,9.57
2023-02-14T05:26:40.892Z,11.30
2023-02-14T05:29:09.004Z,10.23
2023-02-14T05:31:37.238Z,9.50
2023-02-14T05:34:06.623Z,9.43
2023-02-14T05:36:34.716Z,9.30
2023-02-14T05:39:02.756Z,9.80
2023-02-14T05:41:30.789Z,10.83
2023-02-14T05:43:58.840Z,9.67
2023-02-14T05:46:27.174Z,10.57
2023-02-14T05:48:55.321Z,9.90
2023-02-14T05:51:24.881Z,9.87
2023-02-14T05:53:52.918Z,10.43
2023-02-14T05:56:20.929Z,9.97
2023-02-14T05:58:48.927Z,9.20
2023-02-14T06:01:16.948Z,11.13
2023-02-14T06:03:44.936Z,10.20
2023-02-14T06:06:12.910Z,9.63
2023-02-14T06:08:42.266Z,10.30
2023-02-14T06:11:10.221Z,10.90
2023-02-14T06:13:40.295Z,12.27
2023-02-14T06:16:08.480Z,13.87
2023-02-14T06:18:36.503Z,11.40
2023-02-14T06:21:04.949Z,12.37
2023-02-14T06:23:32.969Z,11.07
2023-02-14T06:26:02.299Z,13.20
2023-02-14T06:28:30.295Z,13.53
2023-02-14T06:30:58.509Z,11.87
2023-02-14T06:33:26.915Z,12.60
2023-02-14T06:35:55.232Z,9.83
2023-02-14T06:38:23.238Z,12.80
2023-02-14T06:40:51.196Z,13.63
2023-02-14T06:43:20.505Z,14.07
2023-02-14T06:45:48.551Z,14.30
2023-02-14T06:48:16.515Z,13.60
2023-02-14T06:50:44.470Z,16.40
2023-02-14T06:53:12.476Z,16.53
2023-02-14T06:55:42.383Z,17.00
2023-02-14T06:58:11.566Z,14.37
2023-02-14T07:00:40.874Z,16.10
2023-02-14T07:03:09.851Z,14.70
2023-02-14T07:05:38.317Z,13.80
2023-02-14T07:08:08.135Z,14.10
2023-02-14T07:10:36.458Z,15.40
2023-02-14T07:13:05.033Z,14.70
2023-02-14T07:15:33.549Z,17.23
2023-02-14T07:18:03.248Z,14.60
2023-02-14T07:20:31.298Z,15.33
2023-02-14T07:22:59.244Z,16.63
2023-02-14T07:25:28.246Z,15.90
2023-02-14T07:27:56.531Z,16.87
2023-02-14T07:30:25.079Z,17.87
2023-02-14T07:32:53.197Z,17.40
2023-02-14T07:35:22.700Z,16.57
2023-02-14T07:37:52.064Z,17.57
2023-02-14T07:40:20.747Z,17.80
2023-02-14T07:42:55.021Z,18.47
2023-02-14T07:45:23.323Z,17.33
2023-02-14T07:47:53.129Z,18.80
2023-02-14T07:50:23.955Z,16.43
2023-02-14T07:52:52.033Z,16.80
2023-02-14T07:55:20.257Z,17.73
2023-02-14T07:57:49.394Z,16.77
2023-02-14T08:00:18.677Z,18.13
2023-02-14T08:02:46.690Z,16.40
2023-02-14T08:05:14.867Z,16.70
2023-02-14T08:07:45.092Z,16.37
2023-02-14T08:10:13.468Z,14.57
2023-02-14T08:12:59.590Z,15.80
2023-02-14T08:15:45.746Z,17.00
2023-02-14T08:18:14.032Z,16.50
2023-02-14T08:20:42.244Z,15.73
2023-02-14T08:23:11.753Z,17.00
2023-02-14T08:25:40.371Z,17.50
2023-02-14T08:28:08.566Z,16.40
2023-02-14T08:30:38.706Z,18.87
2023-02-14T08:33:07.134Z,17.57
2023-02-14T08:35:35.892Z,16.03
2023-02-14T08:38:05.365Z,19.90
2023-02-14T08:40:35.088Z,19.23
2023-02-14T08:43:04.507Z,18.00
2023-02-14T08:45:32.575Z,16.70
2023-02-14T08:48:07.596Z,17.47
2023-02-14T08:50:41.821Z,18.83
2023-02-14T08:53:16.466Z,17.50
2023-02-14T08:55:46.070Z,19.40
2023-02-14T08:58:14.380Z,18.50
2023-02-14T09:00:42.397Z,18.83
2023-02-14T09:03:10.595Z,19.63
2023-02-14T09:05:38.642Z,19.23
2023-02-14T09:08:07.714Z,17.20
2023-02-14T09:10:35.747Z,17.33
2023-02-14T09:13:05.397Z,17.30
2023-02-14T09:15:33.383Z,17.87
2023-02-14T09:18:01.452Z,18.10
2023-02-14T09:20:29.474Z,17.27
2023-02-14T09:22:57.813Z,19.97
2023-02-14T09:25:25.845Z,16.17
2023-02-14T09:27:53.923Z,20.27
2023-02-14T09:30:23.385Z,18.40
2023-02-14T09:32:53.737Z,19.90
2023-02-14T09:35:39.306Z,18.10
2023-02-14T09:38:19.147Z,19.37
2023-02-14T09:40:48.303Z,16.10
2023-02-14T09:43:25.993Z,19.33
2023-02-14T09:45:59.581Z,17.17
2023-02-14T09:48:36.184Z,16.87
2023-02-14T09:51:08.840Z,16.90
2023-02-14T09:53:42.750Z,16.57
2023-02-14T09:56:18.925Z,15.83
2023-02-14T09:58:54.250Z,16.20
2023-02-14T10:01:28.401Z,17.27
2023-02-14T10:04:17.568Z,17.30
2023-02-14T10:06:53.596Z,18.83
2023-02-14T10:09:55.242Z,19.53
2023-02-14T10:12:28.322Z,15.20
2023-02-14T10:15:00.815Z,16.30
2023-02-14T10:17:39.888Z,14.77
2023-02-14T10:20:22.597Z,15.10
2023-02-14T10:23:00.912Z,15.47
2023-02-14T10:25:35.535Z,14.23
2023-02-14T10:28:03.865Z,15.53
2023-02-14T10:30:39.543Z,12.90
2023-02-14T10:33:19.290Z,16.10
2023-02-14T10:35:50.615Z,15.97
2023-02-14T10:38:37.134Z,17.43
2023-02-14T10:41:23.892Z,14.30
2023-02-14T10:44:01.542Z,15.90
2023-02-14T10:46:38.930Z,15.20
2023-02-14T10:49:28.130Z,17.50
2023-02-14T10:52:04.261Z,16.67
2023-02-14T10:54:40.486Z,18.13
2023-02-14T10:57:15.980Z,15.77
2023-02-14T10:59:52.560Z,16.17
2023-02-14T11:02:28.024Z,14.17
2023-02-14T11:04:58.672Z,16.63
2023-02-14T11:07:26.716Z,18.07
2023-02-14T11:09:54.744Z,17.57
2023-02-14T11:12:38.196Z,18.57
2023-02-14T11:15:16.603Z,17.27
2023-02-14T11:17:44.618Z,15.37
2023-02-14T11:20:27.767Z,19.07
2023-02-14T11:22:55.758Z,17.00
2023-02-14T11:25:26.470Z,17.80
2023-02-14T11:28:01.974Z,18.50
2023-02-14T11:30:34.784Z,18.57
2023-02-14T11:33:04.246Z,18.50
2023-02-14T11:35:34.771Z,19.93
2023-02-14T11:38:05.522Z,16.47
2023-02-14T11:40:36.825Z,17.80
2023-02-14T11:43:21.744Z,19.20
2023-02-14T11:45:50.940Z,17.93
2023-02-14T11:48:36.573Z,17.80
2023-02-14T11:51:10.047Z,18.47
2023-02-14T11:53:47.071Z,18.00
2023-02-14T11:56:16.300Z,18.17
2023-02-14T11:58:56.125Z,19.13
2023-02-14T12:01:27.611Z,16.40
2023-02-14T12:03:58.811Z,20.77
2023-02-14T12:06:31.281Z,19.73
2023-02-14T12:09:13.518Z,19.70
2023-02-14T12:11:41.605Z,16.17
2023-02-14T12:14:22.966Z,16.77
2023-02-14T12:17:01.115Z,18.37
2023-02-14T12:19:42.481Z,16.87
2023-02-14T12:22:17.935Z,16.23
2023-02-14T12:24:55.385Z,16.57
2023-02-14T12:27:27.988Z,17.37
2023-02-14T12:30:08.224Z,17.87
2023-02-14T12:32:36.513Z,16.67
2023-02-14T12:35:15.114Z,18.43
2023-02-14T12:38:04.933Z,17.90
2023-02-14T12:40:48.884Z,17.77
2023-02-14T12:43:47.788Z,16.20
2023-02-14T12:46:39.195Z,19.03
2023-02-14T12:49:28.139Z,27.30
2023-02-14T12:52:07.560Z,17.13
2023-02-14T12:54:53.119Z,17.90
2023-02-14T12:57:36.576Z,17.37
2023-02-14T13:00:22.180Z,18.40
2023-02-14T13:03:28.825Z,19.10
2023-02-14T13:06:04.067Z,24.43
2023-02-14T13:09:01.272Z,24.07
2023-02-14T13:11:40.873Z,16.63
2023-02-14T13:14:33.095Z,20.73
2023-02-14T13:17:11.863Z,17.30
2023-02-14T13:19:53.544Z,18.80
2023-02-14T13:22:25.391Z,17.00
2023-02-14T13:24:58.801Z,16.00
2023-02-14T13:27:32.628Z,17.90
2023-02-14T13:30:05.344Z,20.37
2023-02-14T13:32:42.232Z,17.03
2023-02-14T13:35:17.723Z,17.03
2023-02-14T13:37:50.677Z,17.40
2023-02-14T13:40:23.765Z,18.57
2023-02-14T13:42:58.456Z,17.50
2023-02-14T13:45:55.853Z,20.80
2023-02-14T13:48:26.702Z,20.53
2023-02-14T13:50:59.183Z,18.57
2023-02-14T13:53:35.631Z,29.33
2023-02-14T13:56:06.764Z,21.33
2023-02-14T13:58:36.688Z,17.87
2023-02-14T14:01:38.827Z,22.17
2023-02-14T14:04:36.250Z,18.57
2023-02-14T14:07:30.015Z,19.40
2023-02-14T14:10:06.012Z,15.30
2023-02-14T14:12:46.672Z,18.57
2023-02-14T14:15:21.400Z,18.03
2023-02-14T14:18:24.361Z,16.00
2023-02-14T14:20:52.470Z,18.60
2023-02-14T14:23:38.461Z,18.37
2023-02-14T14:26:37.058Z,17.33
2023-02-14T14:29:15.331Z,18.30
2023-02-14T14:31:46.558Z,21.17
2023-02-14T14:34:21.064Z,20.33
2023-02-14T14:36:49.514Z,20.10
2023-02-14T14:39:29.358Z,19.50
2023-02-14T14:42:07.031Z,19.73
2023-02-14T14:44:37.026Z,18.80
2023-02-14T14:47:07.327Z,16.83
2023-02-14T14:49:35.439Z,18.43
2023-02-14T14:52:03.599Z,20.13
2023-02-14T14:54:33.207Z,19.97
2023-02-14T14:57:03.700Z,23.50
2023-02-14T14:59:35.592Z,21.17
2023-02-14T15:02:22.346Z,20.93
2023-02-14T15:04:50.532Z,21.87
2023-02-14T15:07:23.947Z,19.90
2023-02-14T15:09:52.283Z,21.50
2023-02-14T15:12:42.735Z,21.63
2023-02-14T15:15:13.707Z,24.07
2023-02-14T15:17:44.785Z,23.50
2023-02-14T15:20:19.058Z,24.57
2023-02-14T15:22:49.855Z,23.17
2023-02-14T15:25:21.411Z,24.50
2023-02-14T15:27:50.421Z,23.40
2023-02-14T15:30:29.183Z,22.13
2023-02-14T15:32:59.083Z,20.70
2023-02-14T15:35:31.136Z,21.30
2023-02-14T15:38:03.990Z,21.53
2023-02-14T15:40:35.170Z,19.17
2023-02-14T15:43:16.348Z,21.10
2023-02-14T15:45:45.343Z,22.77
2023-02-14T15:48:20.349Z,21.20
2023-02-14T15:50:51.169Z,22.87
2023-02-14T15:53:41.234Z,20.83
2023-02-14T15:56:20.370Z,34.20
2023-02-14T15:58:49.509Z,23.57
2023-02-14T16:01:22.608Z,22.57
2023-02-14T16:03:57.240Z,22.40
2023-02-14T16:06:35.622Z,22.43
2023-02-14T16:09:07.906Z,22.00
2023-02-14T16:11:38.135Z,23.87
2023-02-14T16:14:30.841Z,23.63
2023-02-14T16:17:03.056Z,22.60
2023-02-14T16:19:42.473Z,24.13
2023-02-14T16:22:11.885Z,23.37
2023-02-14T16:24:41.928Z,21.57
2023-02-14T16:27:13.251Z,24.43
2023-02-14T16:29:46.889Z,22.30
2023-02-14T16:32:26.398Z,21.83
2023-02-14T16:34:56.158Z,25.40
2023-02-14T16:37:26.925Z,26.33
2023-02-14T16:39:57.595Z,22.83
2023-02-14T16:42:26.090Z,23.67
2023-02-14T16:44:54.322Z,22.70
2023-02-14T16:47:22.887Z,22.07
2023-02-14T16:49:52.975Z,22.90
2023-02-14T16:52:25.890Z,23.97
2023-02-14T16:54:54.083Z,23.80
2023-02-14T16:57:27.826Z,24.67
2023-02-14T16:59:57.407Z,25.90
2023-02-14T17:02:28.245Z,23.00
2023-02-14T17:04:56.726Z,27.77
2023-02-14T17:07:26.373Z,26.47
2023-02-14T17:09:58.817Z,24.20
2023-02-14T17:12:30.748Z,22.07
2023-02-14T17:15:05.906Z,23.40
2023-02-14T17:17:37.288Z,27.27
2023-02-14T17:20:08.497Z,26.87
2023-02-14T17:22:38.480Z,23.60
2023-02-14T17:25:08.076Z,29.07
2023-02-14T17:27:36.332Z,25.57
2023-02-14T17:30:04.854Z,23.67
2023-02-14T17:32:32.988Z,24.67
2023-02-14T17:35:03.364Z,22.47
2023-02-14T17:37:32.269Z,21.67
2023-02-14T17:40:01.925Z,21.50
2023-02-14T17:42:32.082Z,21.93
2023-02-14T17:45:00.132Z,20.37
2023-02-14T17:47:29.656Z,22.17
2023-02-14T17:49:58.167Z,23.47
2023-02-14T17:52:28.408Z,21.47
2023-02-14T17:54:56.853Z,21.37
2023-02-14T17:57:26.383Z,22.83
2023-02-14T17:59:54.451Z,19.83
2023-02-14T18:02:22.537Z,20.87
2023-02-14T18:04:50.625Z,21.17
2023-02-14T18:07:20.794Z,21.77
2023-02-14T18:09:51.743Z,19.77
2023-02-14T18:12:21.790Z,22.60
2023-02-14T18:14:53.172Z,18.97
2023-02-14T18:17:21.259Z,20.70
2023-02-14T18:19:49.729Z,21.00
2023-02-14T18:22:17.924Z,18.93
2023-02-14T18:24:46.054Z,22.10
2023-02-14T18:27:15.809Z,20.47
2023-02-14T18:29:46.673Z,20.73
2023-02-14T18:32:17.664Z,19.37
2023-02-14T18:34:45.816Z,19.60
2023-02-14T18:37:14.318Z,18.40
2023-02-14T18:39:42.424Z,19.40
2023-02-14T18:42:10.380Z,17.93
2023-02-14T18:44:38.351Z,19.27
2023-02-14T18:47:07.148Z,17.70
2023-02-14T18:49:36.478Z,18.50
2023-02-14T18:52:04.955Z,17.23
2023-02-14T18:54:33.045Z,18.47
2023-02-14T18:57:01.729Z,20.00
2023-02-14T18:59:30.727Z,16.77
2023-02-14T19:02:01.190Z,18.30
2023-02-14T19:04:30.232Z,17.33
2023-02-14T19:06:59.969Z,18.20
2023-02-14T19:09:29.372Z,24.47
2023-02-14T19:11:59.948Z,20.00
2023-02-14T19:14:28.101Z,19.00
2023-02-14T19:16:58.702Z,17.00
2023-02-14T19:19:26.699Z,19.00
2023-02-14T19:21:54.991Z,17.47
2023-02-14T19:24:25.585Z,18.00
2023-02-14T19:26:56.094Z,17.73
2023-02-14T19:29:24.361Z,18.13
2023-02-14T19:31:54.703Z,19.50
2023-02-14T19:34:28.019Z,17.13
2023-02-14T19:36:59.645Z,19.67
2023-02-14T19:39:30.485Z,17.30
2023-02-14T19:41:59.544Z,19.80
2023-02-14T19:44:30.063Z,19.30
2023-02-14T19:47:00.007Z,18.93
2023-02-14T19:49:29.163Z,19.80
2023-02-14T19:51:58.809Z,19.67
2023-02-14T19:54:29.729Z,16.60
2023-02-14T19:56:57.726Z,26.87
2023-02-14T19:59:27.840Z,19.83
2023-02-14T20:01:58.261Z,20.60
2023-02-14T20:04:29.090Z,17.17
2023-02-14T20:06:58.730Z,17.80
2023-02-14T20:09:29.227Z,21.10
2023-02-14T20:12:01.079Z,23.40
2023-02-14T20:14:36.171Z,18.27
2023-02-14T20:17:14.872Z,20.13
2023-02-14T20:19:43.232Z,21.00
2023-02-14T20:22:11.262Z,19.20
2023-02-14T20:24:42.930Z,17.27
2023-02-14T20:27:11.841Z,18.10
2023-02-14T20:29:42.986Z,21.77
2023-02-14T20:32:12.417Z,23.37
2023-02-14T20:34:40.775Z,23.37
2023-02-14T20:37:11.012Z,20.47
2023-02-14T20:39:40.668Z,17.53
2023-02-14T20:42:08.782Z,17.33
2023-02-14T20:44:37.333Z,15.07
2023-02-14T20:47:06.338Z,14.50
2023-02-14T20:49:35.671Z,15.33
2023-02-14T20:52:03.968Z,14.93
2023-02-14T20:54:32.419Z,15.93
2023-02-14T20:57:01.722Z,15.03
2023-02-14T20:59:29.761Z,15.10
2023-02-14T21:01:59.555Z,16.43
2023-02-14T21:04:34.180Z,15.07
2023-02-14T21:07:08.394Z,15.00
2023-02-14T21:09:37.688Z,13.47
2023-02-14T21:12:08.279Z,12.67
2023-02-14T21:14:36.468Z,12.80
2023-02-14T21:17:05.345Z,13.37
2023-02-14T21:19:33.677Z,13.17
2023-02-14T21:22:01.703Z,13.90
2023-02-14T21:24:30.591Z,14.00
2023-02-14T21:26:58.760Z,12.50
2023-02-14T21:29:28.705Z,14.00
2023-02-14T21:31:56.838Z,13.40
2023-02-14T21:34:28.155Z,13.67
2023-02-14T21:36:57.091Z,13.63
2023-02-14T21:39:29.322Z,13.70
2023-02-14T21:42:01.299Z,16.13
2023-02-14T21:44:49.173Z,14.17
2023-02-14T21:47:21.645Z,17.30
2023-02-14T21:50:07.647Z,14.23
2023-02-14T21:52:36.600Z,15.67
2023-02-14T21:55:04.741Z,15.60
2023-02-14T21:57:32.748Z,19.83
2023-02-14T22:00:02.216Z,19.70
2023-02-14T22:02:30.329Z,15.00
2023-02-14T22:04:58.371Z,18.40
2023-02-14T22:07:28.769Z,20.73
2023-02-14T22:09:56.899Z,20.53
2023-02-14T22:12:24.887Z,17.87
2023-02-14T22:14:52.911Z,21.10
2023-02-14T22:17:22.365Z,20.80
2023-02-14T22:19:50.365Z,20.33
2023-02-14T22:22:18.408Z,21.13
2023-02-14T22:24:46.565Z,19.37
2023-02-14T22:27:17.425Z,21.63
2023-02-14T22:29:45.395Z,21.77
2023-02-14T22:32:13.527Z,21.00
2023-02-14T22:34:42.959Z,21.20
2023-02-14T22:37:10.956Z,19.90
2023-02-14T22:39:38.958Z,21.43
2023-02-14T22:42:07.118Z,19.77
2023-02-14T22:44:35.139Z,22.63
2023-02-14T22:47:03.175Z,21.07
2023-02-14T22:49:31.393Z,22.63
2023-02-14T22:52:00.751Z,22.40
2023-02-14T22:54:28.721Z,21.60
2023-02-14T22:56:56.768Z,20.17
2023-02-14T22:59:28.036Z,21.43
2023-02-14T23:01:56.138Z,22.30
2023-02-14T23:04:25.634Z,20.60
2023-02-14T23:06:54.918Z,17.80
2023-02-14T23:09:25.909Z,18.20
2023-02-14T23:11:53.869Z,20.33
2023-02-14T23:14:39.813Z,20.40
2023-02-14T23:17:25.688Z,18.80
2023-02-14T23:20:11.044Z,17.87
2023-02-14T23:22:41.350Z,17.43
2023-02-14T23:25:13.478Z,18.03
2023-02-14T23:27:44.074Z,17.97
2023-02-14T23:30:16.224Z,17.10
2023-02-14T23:32:44.500Z,17.83
2023-02-14T23:35:13.360Z,15.40
2023-02-14T23:37:41.906Z,18.53
2023-02-14T23:40:12.428Z,16.70
2023-02-14T23:42:40.507Z,16.60
2023-02-14T23:45:27.018Z,18.17
2023-02-14T23:47:55.100Z,16.40
2023-02-14T23:50:23.245Z,18.87
2023-02-14T23:52:51.206Z,17.17
2023-02-14T23:55:20.606Z,20.83
2023-02-14T23:57:48.575Z,21.67
